BAW272 TBPB-EGLL
Flight info
| Callsign | BAW272 |
|---|---|
| Flight time | N/A |
| Altitude | 25000 |
| Route | 1800N05533W/M200F430 DCT 2423N05000W DCT 2700N04731W 3356N04000W 4100N03000W 4500N02218W 4600N02000W 4740N01500W SL7 TAKAS/N0558F370 ORTAC DCT DOMUT DCT KATHY DCT HAZEL |
| Aircraft | CONC/H-SDFHIRY/C |
Departure
| Time | 2026-05-06 16:55 |
|---|---|
| Airport | Grantley Adams International Airport (TBPB) |
Arrival
| Time | N/A |
|---|---|
| Airport | London Heathrow Airport (EGLL) |
| Time | Latitude | Longitude | Altitude | Speed | Heading |
|---|---|---|---|---|---|
| 2026-05-06 16:06 | 13.07944 | -59.48495 | 181 ft | 0 kts | 346° |
| 2026-05-06 16:43 | 13.07939 | -59.48494 | 181 ft | 3 kts | 345° |
| 2026-05-06 16:43 | 13.07913 | -59.48486 | 181 ft | 4 kts | 341° |
| 2026-05-06 16:43 | 13.07888 | -59.48476 | 181 ft | 4 kts | 334° |
| 2026-05-06 16:43 | 13.07866 | -59.48461 | 181 ft | 4 kts | 316° |
| 2026-05-06 16:44 | 13.07855 | -59.48441 | 181 ft | 4 kts | 268° |
| 2026-05-06 16:44 | 13.07856 | -59.48436 | 180 ft | 0 kts | 256° |
| 2026-05-06 16:46 | 13.07852 | -59.48454 | 180 ft | 4 kts | 256° |
| 2026-05-06 16:47 | 13.07842 | -59.48493 | 180 ft | 7 kts | 256° |
| 2026-05-06 16:47 | 13.07825 | -59.48562 | 181 ft | 12 kts | 256° |
| 2026-05-06 16:47 | 13.07801 | -59.48657 | 181 ft | 15 kts | 255° |
| 2026-05-06 16:47 | 13.07774 | -59.48743 | 180 ft | 11 kts | 235° |
| 2026-05-06 16:48 | 13.07733 | -59.48814 | 180 ft | 13 kts | 255° |
| 2026-05-06 16:48 | 13.07711 | -59.48905 | 181 ft | 14 kts | 256° |
| 2026-05-06 16:48 | 13.07684 | -59.49016 | 181 ft | 18 kts | 255° |
| 2026-05-06 16:48 | 13.07651 | -59.49148 | 180 ft | 21 kts | 256° |
| 2026-05-06 16:49 | 13.07618 | -59.49283 | 181 ft | 21 kts | 256° |
| 2026-05-06 16:49 | 13.07588 | -59.49409 | 180 ft | 19 kts | 256° |
| 2026-05-06 16:49 | 13.07552 | -59.49554 | 181 ft | 22 kts | 256° |
| 2026-05-06 16:49 | 13.07515 | -59.49705 | 181 ft | 22 kts | 256° |
| 2026-05-06 16:50 | 13.07475 | -59.49867 | 181 ft | 22 kts | 256° |
| 2026-05-06 16:50 | 13.07448 | -59.49978 | 181 ft | 16 kts | 256° |
| 2026-05-06 16:50 | 13.07418 | -59.50102 | 180 ft | 19 kts | 256° |
| 2026-05-06 16:50 | 13.07382 | -59.50247 | 181 ft | 22 kts | 256° |
| 2026-05-06 16:51 | 13.07351 | -59.50375 | 180 ft | 17 kts | 256° |
| 2026-05-06 16:51 | 13.07327 | -59.50470 | 180 ft | 9 kts | 256° |
| 2026-05-06 16:51 | 13.07309 | -59.50544 | 180 ft | 12 kts | 256° |
| 2026-05-06 16:51 | 13.07285 | -59.50642 | 181 ft | 14 kts | 256° |
| 2026-05-06 16:52 | 13.07259 | -59.50717 | 181 ft | 10 kts | 224° |
| 2026-05-06 16:52 | 13.07209 | -59.50730 | 180 ft | 7 kts | 170° |
| 2026-05-06 16:52 | 13.07153 | -59.50715 | 181 ft | 9 kts | 166° |
| 2026-05-06 16:52 | 13.07109 | -59.50704 | 181 ft | 3 kts | 162° |
| 2026-05-06 16:53 | 13.07102 | -59.50694 | 180 ft | 2 kts | 105° |
| 2026-05-06 16:53 | 13.07104 | -59.50687 | 180 ft | 0 kts | 75° |
| 2026-05-06 16:54 | 13.07116 | -59.50639 | 180 ft | 31 kts | 75° |
| 2026-05-06 16:54 | 13.07236 | -59.50161 | 180 ft | 107 kts | 76° |
| 2026-05-06 16:54 | 13.07482 | -59.49161 | 180 ft | 179 kts | 76° |
| 2026-05-06 16:54 | 13.07838 | -59.47726 | 271 ft | 226 kts | 77° |
| 2026-05-06 16:55 | 13.08227 | -59.46079 | 668 ft | 244 kts | 77° |
| 2026-05-06 16:55 | 13.08612 | -59.44368 | 1025 ft | 247 kts | 78° |
| 2026-05-06 16:55 | 13.08998 | -59.42640 | 1482 ft | 249 kts | 77° |
| 2026-05-06 16:55 | 13.09394 | -59.40903 | 2041 ft | 250 kts | 77° |
| 2026-05-06 16:56 | 13.09849 | -59.39180 | 2660 ft | 252 kts | 66° |
| 2026-05-06 16:56 | 13.10750 | -59.37625 | 3353 ft | 256 kts | 49° |
| 2026-05-06 16:56 | 13.12086 | -59.36432 | 4143 ft | 263 kts | 32° |
| 2026-05-06 16:56 | 13.13791 | -59.35664 | 4961 ft | 275 kts | 18° |
| 2026-05-06 16:57 | 13.15669 | -59.35136 | 5792 ft | 286 kts | 18° |
| 2026-05-06 16:57 | 13.17662 | -59.34578 | 6629 ft | 309 kts | 18° |
| 2026-05-06 16:57 | 13.19814 | -59.33977 | 7666 ft | 329 kts | 18° |
| 2026-05-06 16:57 | 13.22057 | -59.33355 | 8976 ft | 338 kts | 17° |
| 2026-05-06 16:58 | 13.24319 | -59.32655 | 10331 ft | 340 kts | 25° |
| 2026-05-06 16:58 | 13.26430 | -59.31558 | 11568 ft | 345 kts | 37° |
| 2026-05-06 16:58 | 13.28428 | -59.30103 | 12423 ft | 360 kts | 38° |
| 2026-05-06 16:58 | 13.30444 | -59.28496 | 13144 ft | 372 kts | 39° |
| 2026-05-06 16:59 | 13.32506 | -59.26815 | 13702 ft | 388 kts | 39° |
| 2026-05-06 16:59 | 13.34676 | -59.25037 | 13959 ft | 409 kts | 39° |
| 2026-05-06 16:59 | 13.36939 | -59.23187 | 14323 ft | 423 kts | 39° |
| 2026-05-06 16:59 | 13.39250 | -59.21310 | 14787 ft | 432 kts | 39° |
| 2026-05-06 17:00 | 13.41641 | -59.19386 | 15358 ft | 440 kts | 38° |
| 2026-05-06 17:00 | 13.44086 | -59.17443 | 15966 ft | 447 kts | 38° |
| 2026-05-06 17:00 | 13.46577 | -59.15503 | 16645 ft | 452 kts | 37° |
| 2026-05-06 17:00 | 13.49106 | -59.13559 | 17316 ft | 457 kts | 37° |
| 2026-05-06 17:01 | 13.51671 | -59.11598 | 17982 ft | 462 kts | 37° |
| 2026-05-06 17:01 | 13.54269 | -59.09610 | 18608 ft | 467 kts | 37° |
| 2026-05-06 17:01 | 13.56886 | -59.07594 | 19187 ft | 473 kts | 37° |
| 2026-05-06 17:01 | 13.59528 | -59.05546 | 19739 ft | 478 kts | 37° |
| 2026-05-06 17:02 | 13.62220 | -59.03454 | 20031 ft | 493 kts | 37° |
| 2026-05-06 17:02 | 13.65007 | -59.01287 | 20121 ft | 509 kts | 37° |
| 2026-05-06 17:02 | 13.67846 | -58.99084 | 20274 ft | 527 kts | 37° |
| 2026-05-06 17:02 | 13.70829 | -58.96777 | 20551 ft | 545 kts | 37° |
| 2026-05-06 17:03 | 13.73896 | -58.94407 | 21275 ft | 555 kts | 37° |
| 2026-05-06 17:03 | 13.77012 | -58.91995 | 22168 ft | 564 kts | 37° |
| 2026-05-06 17:03 | 13.80174 | -58.89542 | 23027 ft | 573 kts | 37° |
| 2026-05-06 17:03 | 13.83380 | -58.87052 | 23799 ft | 582 kts | 37° |
| 2026-05-06 17:04 | 13.86629 | -58.84527 | 24519 ft | 589 kts | 37° |
| 2026-05-06 17:04 | 13.89921 | -58.81969 | 25234 ft | 595 kts | 37° |
| 2026-05-06 17:04 | 13.93241 | -58.79389 | 25884 ft | 601 kts | 36° |
| 2026-05-06 17:04 | 13.96584 | -58.76792 | 26492 ft | 604 kts | 36° |
| 2026-05-06 17:05 | 13.99954 | -58.74174 | 26972 ft | 609 kts | 36° |
| 2026-05-06 17:05 | 14.03348 | -58.71538 | 27425 ft | 611 kts | 36° |
| 2026-05-06 17:05 | 14.06708 | -58.68925 | 27761 ft | 614 kts | 36° |
| 2026-05-06 17:05 | 14.10129 | -58.66263 | 28022 ft | 617 kts | 36° |
| 2026-05-06 17:06 | 14.13563 | -58.63590 | 28514 ft | 620 kts | 36° |
| 2026-05-06 17:06 | 14.17019 | -58.60898 | 28932 ft | 625 kts | 36° |
| 2026-05-06 17:06 | 14.20503 | -58.58183 | 29264 ft | 629 kts | 36° |
| 2026-05-06 17:06 | 14.23996 | -58.55460 | 29545 ft | 632 kts | 36° |
| 2026-05-06 17:07 | 14.27520 | -58.52712 | 29843 ft | 635 kts | 36° |
| 2026-05-06 17:07 | 14.31052 | -58.49957 | 30129 ft | 637 kts | 36° |
| 2026-05-06 17:07 | 14.34596 | -58.47192 | 30450 ft | 639 kts | 36° |
| 2026-05-06 17:07 | 14.38150 | -58.44417 | 30765 ft | 642 kts | 36° |
| 2026-05-06 17:08 | 14.41716 | -58.41633 | 31106 ft | 644 kts | 36° |
| 2026-05-06 17:08 | 14.45257 | -58.38866 | 31476 ft | 647 kts | 36° |
| 2026-05-06 17:08 | 14.48847 | -58.36060 | 31871 ft | 649 kts | 37° |
| 2026-05-06 17:08 | 14.52459 | -58.33235 | 32232 ft | 654 kts | 37° |
| 2026-05-06 17:09 | 14.56103 | -58.30385 | 32566 ft | 661 kts | 37° |
| 2026-05-06 17:09 | 14.59792 | -58.27498 | 32996 ft | 671 kts | 37° |
| 2026-05-06 17:09 | 14.63547 | -58.24558 | 33516 ft | 682 kts | 37° |
| 2026-05-06 17:09 | 14.67364 | -58.21569 | 34026 ft | 695 kts | 37° |
| 2026-05-06 17:10 | 14.71252 | -58.18522 | 34529 ft | 707 kts | 37° |
| 2026-05-06 17:10 | 14.75213 | -58.15416 | 34967 ft | 720 kts | 37° |
| 2026-05-06 17:10 | 14.79242 | -58.12255 | 35402 ft | 732 kts | 37° |
| 2026-05-06 17:10 | 14.83331 | -58.09046 | 35833 ft | 744 kts | 37° |
| 2026-05-06 17:11 | 14.87486 | -58.05784 | 36248 ft | 755 kts | 37° |
| 2026-05-06 17:11 | 14.91658 | -58.02506 | 36614 ft | 768 kts | 37° |
| 2026-05-06 17:11 | 14.95944 | -57.99138 | 37019 ft | 779 kts | 37° |
| 2026-05-06 17:11 | 15.00292 | -57.95718 | 37465 ft | 791 kts | 37° |
| 2026-05-06 17:12 | 15.04709 | -57.92244 | 37866 ft | 804 kts | 37° |
| 2026-05-06 17:12 | 15.09201 | -57.88708 | 38307 ft | 817 kts | 37° |
| 2026-05-06 17:12 | 15.13764 | -57.85114 | 38768 ft | 832 kts | 37° |
| 2026-05-06 17:12 | 15.18406 | -57.81456 | 39238 ft | 846 kts | 37° |
| 2026-05-06 17:13 | 15.23135 | -57.77727 | 39704 ft | 862 kts | 37° |
| 2026-05-06 17:13 | 15.27945 | -57.73933 | 40180 ft | 876 kts | 36° |
| 2026-05-06 17:13 | 15.32842 | -57.70067 | 40638 ft | 892 kts | 36° |
| 2026-05-06 17:13 | 15.37762 | -57.66181 | 41089 ft | 907 kts | 36° |
| 2026-05-06 17:14 | 15.42820 | -57.62183 | 41515 ft | 922 kts | 36° |
| 2026-05-06 17:14 | 15.47964 | -57.58115 | 41921 ft | 937 kts | 36° |
| 2026-05-06 17:14 | 15.53186 | -57.53982 | 42333 ft | 951 kts | 36° |
| 2026-05-06 17:14 | 15.58489 | -57.49782 | 42715 ft | 965 kts | 36° |
| 2026-05-06 17:15 | 15.63874 | -57.45514 | 43123 ft | 978 kts | 36° |
| 2026-05-06 17:15 | 15.69297 | -57.41212 | 43545 ft | 985 kts | 36° |
| 2026-05-06 17:15 | 15.74759 | -57.36875 | 43948 ft | 991 kts | 36° |
| 2026-05-06 17:15 | 15.80247 | -57.32515 | 44332 ft | 996 kts | 36° |
| 2026-05-06 17:16 | 15.85774 | -57.28120 | 44703 ft | 1002 kts | 36° |
| 2026-05-06 17:16 | 15.91319 | -57.23707 | 45079 ft | 1007 kts | 36° |
| 2026-05-06 17:16 | 15.96905 | -57.19260 | 45446 ft | 1013 kts | 36° |
| 2026-05-06 17:16 | 16.02455 | -57.14838 | 45797 ft | 1019 kts | 36° |
| 2026-05-06 17:17 | 16.08178 | -57.10276 | 46144 ft | 1026 kts | 36° |
| 2026-05-06 17:17 | 16.13778 | -57.05810 | 46491 ft | 1031 kts | 36° |
| 2026-05-06 17:17 | 16.19484 | -57.01256 | 46838 ft | 1037 kts | 36° |
| 2026-05-06 17:17 | 16.25230 | -56.96666 | 47183 ft | 1042 kts | 36° |
| 2026-05-06 17:18 | 16.30998 | -56.92055 | 47533 ft | 1047 kts | 36° |
| 2026-05-06 17:18 | 16.36800 | -56.87412 | 47891 ft | 1053 kts | 36° |
| 2026-05-06 17:18 | 16.42625 | -56.82747 | 48257 ft | 1058 kts | 37° |
| 2026-05-06 17:18 | 16.48468 | -56.78064 | 48621 ft | 1064 kts | 37° |
| 2026-05-06 17:19 | 16.54360 | -56.73338 | 48990 ft | 1069 kts | 37° |
| 2026-05-06 17:19 | 16.60276 | -56.68589 | 49328 ft | 1076 kts | 37° |
| 2026-05-06 17:19 | 16.66238 | -56.63799 | 49620 ft | 1084 kts | 37° |
| 2026-05-06 17:19 | 16.72229 | -56.58982 | 49877 ft | 1091 kts | 37° |
| 2026-05-06 17:20 | 16.78179 | -56.54194 | 50124 ft | 1098 kts | 37° |
| 2026-05-06 17:20 | 16.84256 | -56.49300 | 50305 ft | 1103 kts | 37° |
| 2026-05-06 17:20 | 16.90325 | -56.44407 | 50448 ft | 1101 kts | 37° |
| 2026-05-06 17:20 | 16.96384 | -56.39518 | 50592 ft | 1099 kts | 37° |
| 2026-05-06 17:21 | 17.00399 | -56.36276 | 50673 ft | 1100 kts | 37° |
| 2026-05-06 17:21 | 17.06453 | -56.31384 | 50794 ft | 1102 kts | 37° |
| 2026-05-06 17:21 | 17.12522 | -56.26475 | 50919 ft | 1103 kts | 37° |
| 2026-05-06 17:21 | 17.18592 | -56.21563 | 51047 ft | 1104 kts | 37° |
| 2026-05-06 17:22 | 17.24677 | -56.16634 | 51172 ft | 1104 kts | 37° |
| 2026-05-06 17:22 | 17.30755 | -56.11708 | 51285 ft | 1105 kts | 37° |
| 2026-05-06 17:22 | 17.36836 | -56.06775 | 51398 ft | 1106 kts | 37° |
| 2026-05-06 17:22 | 17.42926 | -56.01831 | 51514 ft | 1107 kts | 37° |
| 2026-05-06 17:23 | 17.49027 | -55.96877 | 51635 ft | 1108 kts | 37° |
| 2026-05-06 17:23 | 17.55131 | -55.91933 | 51751 ft | 1107 kts | 37° |
| 2026-05-06 17:23 | 17.61148 | -55.87069 | 51847 ft | 1107 kts | 37° |
| 2026-05-06 17:24 | 17.73348 | -55.77201 | 52002 ft | 1108 kts | 37° |
| 2026-05-06 17:24 | 17.85540 | -55.67249 | 52129 ft | 1108 kts | 38° |
| 2026-05-06 17:25 | 17.97662 | -55.57263 | 52223 ft | 1108 kts | 38° |
| 2026-05-06 17:25 | 18.09798 | -55.47215 | 52296 ft | 1109 kts | 38° |
| 2026-05-06 17:26 | 18.21928 | -55.37166 | 52358 ft | 1110 kts | 38° |
| 2026-05-06 17:26 | 18.34085 | -55.27130 | 52408 ft | 1111 kts | 38° |
| 2026-05-06 17:27 | 18.46182 | -55.17148 | 52450 ft | 1112 kts | 38° |
| 2026-05-06 17:27 | 18.58350 | -55.07063 | 52485 ft | 1113 kts | 38° |
| 2026-05-06 17:28 | 18.70550 | -54.96910 | 52519 ft | 1113 kts | 38° |
| 2026-05-06 17:28 | 18.82697 | -54.86774 | 52547 ft | 1114 kts | 38° |
| 2026-05-06 17:29 | 18.94773 | -54.76700 | 52571 ft | 1114 kts | 38° |
| 2026-05-06 17:29 | 19.06954 | -54.66534 | 52595 ft | 1114 kts | 38° |
| 2026-05-06 17:30 | 19.19115 | -54.56352 | 52617 ft | 1114 kts | 38° |
| 2026-05-06 17:30 | 19.31269 | -54.46143 | 52637 ft | 1114 kts | 38° |
| 2026-05-06 17:31 | 19.43435 | -54.35911 | 52657 ft | 1115 kts | 38° |
| 2026-05-06 17:31 | 19.55532 | -54.25732 | 52678 ft | 1115 kts | 38° |
| 2026-05-06 17:32 | 19.67685 | -54.15476 | 52698 ft | 1115 kts | 38° |
| 2026-05-06 17:32 | 19.79829 | -54.05199 | 52718 ft | 1115 kts | 38° |
| 2026-05-06 17:33 | 19.91970 | -53.94912 | 52738 ft | 1115 kts | 38° |
| 2026-05-06 17:33 | 20.04017 | -53.84689 | 52759 ft | 1116 kts | 38° |
| 2026-05-06 17:34 | 20.16149 | -53.74364 | 52782 ft | 1116 kts | 38° |
| 2026-05-06 17:34 | 20.28279 | -53.64019 | 52800 ft | 1116 kts | 38° |
| 2026-05-06 17:35 | 20.40398 | -53.53671 | 52814 ft | 1117 kts | 38° |
| 2026-05-06 17:35 | 20.52524 | -53.43290 | 52821 ft | 1118 kts | 38° |
| 2026-05-06 17:36 | 20.70639 | -53.27738 | 52831 ft | 1118 kts | 39° |
| 2026-05-06 17:36 | 20.82756 | -53.17313 | 52837 ft | 1119 kts | 39° |
| 2026-05-06 17:37 | 20.94894 | -53.06845 | 52841 ft | 1119 kts | 39° |
| 2026-05-06 17:37 | 21.07023 | -52.96360 | 52846 ft | 1120 kts | 39° |
| 2026-05-06 17:38 | 21.19076 | -52.85921 | 52855 ft | 1120 kts | 39° |
| 2026-05-06 17:38 | 21.31198 | -52.75400 | 52865 ft | 1121 kts | 39° |
| 2026-05-06 17:39 | 21.43315 | -52.64858 | 52879 ft | 1121 kts | 39° |
| 2026-05-06 17:39 | 21.55437 | -52.54289 | 52893 ft | 1121 kts | 39° |
| 2026-05-06 17:40 | 21.67546 | -52.43709 | 52909 ft | 1121 kts | 39° |
| 2026-05-06 17:40 | 21.79649 | -52.33110 | 52926 ft | 1121 kts | 39° |
| 2026-05-06 17:41 | 21.91764 | -52.22476 | 52945 ft | 1122 kts | 39° |
| 2026-05-06 17:41 | 22.03866 | -52.11830 | 52965 ft | 1122 kts | 39° |
| 2026-05-06 17:42 | 22.15878 | -52.01239 | 52985 ft | 1122 kts | 39° |
| 2026-05-06 17:42 | 22.27967 | -51.90556 | 53005 ft | 1122 kts | 39° |
| 2026-05-06 17:43 | 22.40048 | -51.79854 | 53021 ft | 1122 kts | 39° |
| 2026-05-06 17:43 | 22.52128 | -51.69130 | 53035 ft | 1122 kts | 39° |
| 2026-05-06 17:44 | 22.64201 | -51.58386 | 53047 ft | 1123 kts | 39° |
| 2026-05-06 17:44 | 22.76196 | -51.47687 | 53056 ft | 1123 kts | 39° |
| 2026-05-06 17:45 | 22.88254 | -51.36906 | 53062 ft | 1124 kts | 39° |
| 2026-05-06 17:45 | 23.00332 | -51.26081 | 53072 ft | 1124 kts | 39° |
| 2026-05-06 17:46 | 23.12408 | -51.15232 | 53082 ft | 1125 kts | 39° |
| 2026-05-06 17:46 | 23.24466 | -51.04373 | 53093 ft | 1125 kts | 39° |
| 2026-05-06 17:47 | 23.36454 | -50.93551 | 53106 ft | 1125 kts | 39° |
| 2026-05-06 17:47 | 23.48507 | -50.82644 | 53119 ft | 1125 kts | 40° |
| 2026-05-06 17:48 | 23.60544 | -50.71724 | 53132 ft | 1126 kts | 40° |
| 2026-05-06 17:48 | 23.72576 | -50.60783 | 53152 ft | 1125 kts | 40° |
| 2026-05-06 17:49 | 23.84596 | -50.49824 | 53162 ft | 1126 kts | 40° |
| 2026-05-06 17:49 | 23.96593 | -50.38810 | 53186 ft | 1125 kts | 40° |
| 2026-05-06 17:50 | 24.08591 | -50.27741 | 53198 ft | 1126 kts | 40° |
| 2026-05-06 17:50 | 24.20519 | -50.16778 | 53216 ft | 1126 kts | 40° |
| 2026-05-06 17:51 | 24.32560 | -50.05752 | 53234 ft | 1126 kts | 40° |
| 2026-05-06 17:51 | 24.44596 | -49.94737 | 53257 ft | 1126 kts | 40° |
| 2026-05-06 17:52 | 24.56608 | -49.83681 | 53273 ft | 1126 kts | 40° |
| 2026-05-06 17:52 | 24.68517 | -49.72637 | 53286 ft | 1126 kts | 40° |
| 2026-05-06 17:53 | 24.80473 | -49.61497 | 53298 ft | 1126 kts | 40° |
| 2026-05-06 17:53 | 24.92446 | -49.50338 | 53309 ft | 1127 kts | 40° |
| 2026-05-06 17:54 | 25.04452 | -49.39157 | 53320 ft | 1127 kts | 40° |
| 2026-05-06 17:54 | 25.16348 | -49.28046 | 53333 ft | 1127 kts | 40° |
| 2026-05-06 17:55 | 25.28309 | -49.16817 | 53347 ft | 1127 kts | 40° |
| 2026-05-06 17:55 | 25.40270 | -49.05547 | 53364 ft | 1127 kts | 40° |
| 2026-05-06 17:56 | 25.52212 | -48.94283 | 53384 ft | 1127 kts | 40° |
| 2026-05-06 17:56 | 25.64162 | -48.82995 | 53403 ft | 1127 kts | 40° |
| 2026-05-06 17:57 | 25.76019 | -48.71751 | 53427 ft | 1127 kts | 40° |
| 2026-05-06 17:57 | 25.87933 | -48.60412 | 53447 ft | 1127 kts | 40° |
| 2026-05-06 17:58 | 25.99840 | -48.49054 | 53475 ft | 1126 kts | 40° |
| 2026-05-06 17:58 | 26.11726 | -48.37696 | 53498 ft | 1126 kts | 40° |
| 2026-05-06 17:59 | 26.23566 | -48.26344 | 53523 ft | 1126 kts | 40° |
| 2026-05-06 17:59 | 26.35435 | -48.14927 | 53548 ft | 1126 kts | 40° |
| 2026-05-06 18:00 | 26.47295 | -48.03487 | 53571 ft | 1127 kts | 40° |
| 2026-05-06 18:00 | 26.59107 | -47.92097 | 53595 ft | 1126 kts | 40° |
| 2026-05-06 18:01 | 26.70986 | -47.80640 | 53617 ft | 1126 kts | 40° |
| 2026-05-06 18:01 | 26.82829 | -47.69159 | 53639 ft | 1126 kts | 41° |
| 2026-05-06 18:02 | 26.94642 | -47.57584 | 53659 ft | 1126 kts | 41° |
| 2026-05-06 18:02 | 27.06405 | -47.45978 | 53680 ft | 1126 kts | 41° |
| 2026-05-06 18:03 | 27.18093 | -47.34431 | 53700 ft | 1126 kts | 41° |
| 2026-05-06 18:03 | 27.29889 | -47.22794 | 53720 ft | 1126 kts | 41° |
| 2026-05-06 18:04 | 27.41671 | -47.11150 | 53743 ft | 1126 kts | 41° |
| 2026-05-06 18:04 | 27.53415 | -46.99477 | 53763 ft | 1126 kts | 41° |
| 2026-05-06 18:05 | 27.65167 | -46.87741 | 53783 ft | 1126 kts | 41° |
| 2026-05-06 18:05 | 27.76823 | -46.76071 | 53807 ft | 1126 kts | 41° |
| 2026-05-06 18:06 | 27.88561 | -46.64312 | 53829 ft | 1126 kts | 41° |
| 2026-05-06 18:06 | 28.00294 | -46.52519 | 53851 ft | 1126 kts | 41° |
| 2026-05-06 18:07 | 28.11922 | -46.40782 | 53876 ft | 1126 kts | 41° |
| 2026-05-06 18:07 | 28.23598 | -46.28953 | 53899 ft | 1126 kts | 41° |
| 2026-05-06 18:08 | 28.35276 | -46.17099 | 53922 ft | 1126 kts | 41° |
| 2026-05-06 18:08 | 28.46950 | -46.05219 | 53945 ft | 1126 kts | 41° |
| 2026-05-06 18:09 | 28.56648 | -45.95317 | 53964 ft | 1126 kts | 41° |
| 2026-05-06 18:09 | 28.68283 | -45.83396 | 53988 ft | 1126 kts | 41° |
| 2026-05-06 18:10 | 28.79910 | -45.71448 | 54013 ft | 1126 kts | 42° |
| 2026-05-06 18:10 | 28.91548 | -45.59457 | 54039 ft | 1126 kts | 42° |
| 2026-05-06 18:11 | 29.03180 | -45.47435 | 54064 ft | 1126 kts | 42° |
| 2026-05-06 18:11 | 29.14776 | -45.35408 | 54089 ft | 1126 kts | 42° |
| 2026-05-06 18:12 | 29.26310 | -45.23407 | 54114 ft | 1126 kts | 42° |
| 2026-05-06 18:12 | 29.37915 | -45.11293 | 54140 ft | 1126 kts | 42° |
| 2026-05-06 18:13 | 29.49504 | -44.99160 | 54169 ft | 1126 kts | 42° |
| 2026-05-06 18:13 | 29.61067 | -44.87014 | 54199 ft | 1126 kts | 42° |
| 2026-05-06 18:14 | 29.72561 | -44.74900 | 54227 ft | 1126 kts | 42° |
| 2026-05-06 18:14 | 29.84106 | -44.62692 | 54255 ft | 1126 kts | 42° |
| 2026-05-06 18:15 | 29.95635 | -44.50462 | 54282 ft | 1126 kts | 42° |
| 2026-05-06 18:15 | 30.07170 | -44.38185 | 54309 ft | 1127 kts | 42° |
| 2026-05-06 18:16 | 30.18710 | -44.25863 | 54338 ft | 1127 kts | 42° |
| 2026-05-06 18:16 | 30.30211 | -44.13540 | 54365 ft | 1126 kts | 42° |
| 2026-05-06 18:17 | 30.41625 | -44.01269 | 54392 ft | 1126 kts | 43° |
| 2026-05-06 18:17 | 30.53102 | -43.88890 | 54387 ft | 1129 kts | 43° |
| 2026-05-06 18:18 | 30.64612 | -43.76433 | 54403 ft | 1131 kts | 43° |
| 2026-05-06 18:18 | 30.76119 | -43.63936 | 54426 ft | 1132 kts | 43° |
| 2026-05-06 18:19 | 30.87626 | -43.51397 | 54451 ft | 1132 kts | 43° |
| 2026-05-06 18:19 | 30.99109 | -43.38840 | 54476 ft | 1132 kts | 43° |
| 2026-05-06 18:20 | 31.10584 | -43.26247 | 54500 ft | 1132 kts | 43° |
| 2026-05-06 18:20 | 31.21991 | -43.13688 | 54524 ft | 1132 kts | 43° |
| 2026-05-06 18:21 | 31.33439 | -43.01038 | 54549 ft | 1132 kts | 43° |
| 2026-05-06 18:21 | 31.44869 | -42.88363 | 54574 ft | 1132 kts | 43° |
| 2026-05-06 18:22 | 31.56305 | -42.75637 | 54602 ft | 1131 kts | 43° |
| 2026-05-06 18:22 | 31.67715 | -42.62894 | 54630 ft | 1131 kts | 43° |
| 2026-05-06 18:23 | 31.79042 | -42.50200 | 54658 ft | 1131 kts | 43° |
| 2026-05-06 18:23 | 31.90416 | -42.37407 | 54686 ft | 1131 kts | 43° |
| 2026-05-06 18:24 | 32.01778 | -42.24581 | 54713 ft | 1131 kts | 43° |
| 2026-05-06 18:24 | 32.13130 | -42.11721 | 54740 ft | 1131 kts | 43° |
| 2026-05-06 18:25 | 32.24459 | -41.98839 | 54767 ft | 1131 kts | 43° |
| 2026-05-06 18:25 | 32.35780 | -41.85920 | 54793 ft | 1131 kts | 44° |
| 2026-05-06 18:26 | 32.47081 | -41.72975 | 54819 ft | 1131 kts | 44° |
| 2026-05-06 18:26 | 32.58380 | -41.59985 | 54845 ft | 1131 kts | 44° |
| 2026-05-06 18:27 | 32.69668 | -41.46960 | 54869 ft | 1131 kts | 44° |
| 2026-05-06 18:27 | 32.80881 | -41.33973 | 54891 ft | 1132 kts | 44° |
| 2026-05-06 18:28 | 32.92143 | -41.20882 | 54913 ft | 1132 kts | 44° |
| 2026-05-06 18:28 | 33.03404 | -41.07741 | 54935 ft | 1132 kts | 44° |
| 2026-05-06 18:29 | 33.14661 | -40.94556 | 54955 ft | 1132 kts | 44° |
| 2026-05-06 18:29 | 33.25817 | -40.81439 | 54974 ft | 1133 kts | 44° |
| 2026-05-06 18:30 | 33.37037 | -40.68197 | 54992 ft | 1133 kts | 44° |
| 2026-05-06 18:30 | 33.48248 | -40.54925 | 55008 ft | 1133 kts | 44° |
| 2026-05-06 18:31 | 33.59493 | -40.41637 | 55021 ft | 1133 kts | 44° |
| 2026-05-06 18:31 | 33.70726 | -40.28346 | 55034 ft | 1134 kts | 44° |
| 2026-05-06 18:32 | 33.81928 | -40.14979 | 55046 ft | 1134 kts | 44° |
| 2026-05-06 18:32 | 33.93039 | -40.01497 | 55060 ft | 1134 kts | 45° |
| 2026-05-06 18:33 | 34.04103 | -39.87912 | 55077 ft | 1135 kts | 45° |
| 2026-05-06 18:33 | 34.15140 | -39.74277 | 55096 ft | 1135 kts | 45° |
| 2026-05-06 18:34 | 34.26110 | -39.60709 | 55117 ft | 1135 kts | 45° |
| 2026-05-06 18:34 | 34.37171 | -39.47057 | 55140 ft | 1135 kts | 45° |
| 2026-05-06 18:35 | 34.48242 | -39.33366 | 55163 ft | 1135 kts | 45° |
| 2026-05-06 18:35 | 34.59263 | -39.19643 | 55186 ft | 1135 kts | 45° |
| 2026-05-06 18:36 | 34.70195 | -39.05938 | 55210 ft | 1136 kts | 45° |
| 2026-05-06 18:36 | 34.81177 | -38.92104 | 55236 ft | 1136 kts | 45° |
| 2026-05-06 18:37 | 34.90304 | -38.80577 | 55256 ft | 1136 kts | 45° |
| 2026-05-06 18:37 | 35.03130 | -38.64351 | 55285 ft | 1136 kts | 45° |
| 2026-05-06 18:38 | 35.14081 | -38.50429 | 55309 ft | 1136 kts | 45° |
| 2026-05-06 18:38 | 35.24936 | -38.36556 | 55333 ft | 1136 kts | 45° |
| 2026-05-06 18:39 | 35.35858 | -38.22532 | 55359 ft | 1135 kts | 46° |
| 2026-05-06 18:40 | 35.52179 | -38.01475 | 55399 ft | 1135 kts | 46° |
| 2026-05-06 18:40 | 35.63047 | -37.87390 | 55423 ft | 1135 kts | 46° |
| 2026-05-06 18:41 | 35.73893 | -37.73273 | 55450 ft | 1135 kts | 46° |
| 2026-05-06 18:41 | 35.84720 | -37.59116 | 55477 ft | 1135 kts | 46° |
| 2026-05-06 18:42 | 35.95460 | -37.45010 | 55503 ft | 1135 kts | 46° |
| 2026-05-06 18:42 | 36.06254 | -37.30772 | 55527 ft | 1135 kts | 46° |
| 2026-05-06 18:43 | 36.17045 | -37.16480 | 55551 ft | 1136 kts | 46° |
| 2026-05-06 18:43 | 36.27811 | -37.02159 | 55575 ft | 1136 kts | 46° |
| 2026-05-06 18:44 | 36.38564 | -36.87795 | 55598 ft | 1136 kts | 46° |
| 2026-05-06 18:44 | 36.49314 | -36.73370 | 55620 ft | 1136 kts | 46° |
| 2026-05-06 18:45 | 36.60031 | -36.58924 | 55643 ft | 1136 kts | 46° |
| 2026-05-06 18:45 | 36.70732 | -36.44437 | 55664 ft | 1136 kts | 47° |
| 2026-05-06 18:46 | 36.81352 | -36.29997 | 55685 ft | 1137 kts | 47° |
| 2026-05-06 18:46 | 36.92025 | -36.15419 | 55706 ft | 1137 kts | 47° |
| 2026-05-06 18:47 | 37.00878 | -36.03279 | 55722 ft | 1136 kts | 47° |